Time;durP1;ratioP1;P1;durP2;ratioP2;P2;SDS_P1;SDS_P2;PMS_P1;PMS_P2;Temp;Humidity;BMP_temperature;BMP_pressure;BME280_temperature;BME280_humidity;BME280_pressure;Samples;Min_cycle;Max_cycle;Signal;HPM_P1;HPM_P2
2021/08/24 00:00:23;;;;;;;14.63;10.13;;;16.90;99.90;;;;;;4992712;28;20556;-62
2021/08/24 00:02:48;;;;;;;17.30;10.10;;;17.00;99.90;;;;;;4975058;28;20490;-63
2021/08/24 00:05:23;;;;;;;15.20;10.10;;;17.00;99.90;;;;;;4991340;28;20485;-63
2021/08/24 00:07:49;;;;;;;12.80;9.57;;;16.90;99.90;;;;;;4991803;28;20458;-63
2021/08/24 00:10:15;;;;;;;12.07;8.07;;;16.90;99.90;;;;;;4992127;28;20906;-62
2021/08/24 00:12:41;;;;;;;12.00;8.30;;;17.00;99.90;;;;;;4992602;28;20548;-60
2021/08/24 00:15:07;;;;;;;11.80;7.97;;;17.10;99.90;;;;;;4992528;28;20473;-63
2021/08/24 00:17:33;;;;;;;12.13;7.57;;;17.10;99.90;;;;;;4992453;28;20426;-63
2021/08/24 00:19:59;;;;;;;11.33;7.70;;;17.10;99.90;;;;;;4991471;28;20433;-62
2021/08/24 00:22:25;;;;;;;11.05;7.82;;;17.20;99.90;;;;;;4992287;28;20866;-62
2021/08/24 00:24:50;;;;;;;12.60;7.57;;;17.20;99.90;;;;;;4991334;28;20414;-61
2021/08/24 00:27:16;;;;;;;11.20;7.03;;;17.20;99.90;;;;;;4991989;28;20854;-63
2021/08/24 00:29:42;;;;;;;12.02;6.75;;;17.20;99.90;;;;;;4991337;28;20406;-60
2021/08/24 00:32:07;;;;;;;9.60;6.30;;;17.10;99.90;;;;;;4992221;28;20556;-63
2021/08/24 00:34:33;;;;;;;11.37;7.27;;;17.10;99.90;;;;;;4974256;28;20769;-62
2021/08/24 00:37:00;;;;;;;10.50;7.23;;;17.10;99.90;;;;;;4991207;28;20401;-63
2021/08/24 00:39:26;;;;;;;10.95;7.20;;;17.00;99.90;;;;;;4992081;28;20558;-62
2021/08/24 00:41:51;;;;;;;10.60;7.18;;;17.00;99.90;;;;;;4991009;28;20490;-63
2021/08/24 00:44:17;;;;;;;10.75;7.15;;;17.10;99.90;;;;;;4991532;28;20391;-62
2021/08/24 00:46:51;;;;;;;12.53;8.03;;;17.10;99.90;;;;;;4973910;28;20874;-60
2021/08/24 00:49:21;;;;;;;11.07;8.07;;;17.00;99.90;;;;;;4991538;28;20429;-62
2021/08/24 00:51:51;;;;;;;10.88;7.40;;;17.00;99.90;;;;;;4990661;28;20406;-62
2021/08/24 00:54:22;;;;;;;12.00;7.47;;;16.90;99.90;;;;;;4990876;28;20459;-62
2021/08/24 00:57:02;;;;;;;10.13;7.37;;;16.90;99.90;;;;;;4990788;28;20394;-62
2021/08/24 00:59:28;;;;;;;12.27;7.88;;;16.80;99.90;;;;;;4991733;28;20382;-62
2021/08/24 01:01:54;;;;;;;10.50;7.70;;;16.80;99.90;;;;;;4990760;28;20383;-62
2021/08/24 01:04:22;;;;;;;11.32;7.80;;;16.80;99.90;;;;;;4991229;28;20469;-62
2021/08/24 01:07:25;;;;;;;12.32;8.10;;;16.70;99.90;;;;;;4991226;28;20390;-62
2021/08/24 01:10:26;;;;;;;13.40;7.73;;;16.70;99.90;;;;;;4910894;29;20813;-64
2021/08/24 01:13:07;;;;;;;13.07;8.48;;;17.20;99.90;;;;;;4990618;28;20414;-62
2021/08/24 01:15:59;;;;;;;14.60;7.60;;;16.60;99.90;;;;;;4991307;28;20375;-62
2021/08/24 01:18:39;;;;;;;11.30;7.68;;;16.60;99.90;;;;;;4979826;28;20432;-62
2021/08/24 01:21:39;;;;;;;13.95;7.50;;;16.60;99.90;;;;;;4990466;28;20379;-62
2021/08/24 01:24:29;;;;;;;12.07;7.53;;;16.60;99.90;;;;;;4990394;28;20526;-63
2021/08/24 01:27:05;;;;;;;13.00;8.30;;;16.50;99.90;;;;;;4990567;28;20873;-62
2021/08/24 01:29:50;;;;;;;11.02;7.65;;;16.40;99.90;;;;;;4977013;28;20422;-62
2021/08/24 01:32:33;;;;;;;11.60;7.60;;;16.30;99.90;;;;;;4979785;28;20478;-62
2021/08/24 01:35:06;;;;;;;11.35;8.40;;;16.30;99.90;;;;;;4989207;28;20476;-62
2021/08/24 01:38:05;;;;;;;13.27;7.65;;;16.10;99.90;;;;;;4990737;28;20394;-62
2021/08/24 01:40:50;;;;;;;12.20;7.95;;;16.10;99.90;;;;;;4990970;28;20413;-62
2021/08/24 01:43:27;;;;;;;14.20;7.93;;;16.00;99.90;;;;;;4990842;28;20386;-62
2021/08/24 01:46:04;;;;;;;10.95;8.23;;;15.90;99.90;;;;;;4989725;28;20482;-62
2021/08/24 01:48:37;;;;;;;10.90;7.90;;;15.80;99.90;;;;;;4990751;28;20464;-62
2021/08/24 01:51:10;;;;;;;12.65;7.80;;;15.70;99.90;;;;;;4989484;28;20580;-62
2021/08/24 01:53:48;;;;;;;12.93;8.50;;;15.70;99.90;;;;;;4990612;28;20387;-62
2021/08/24 01:56:19;;;;;;;13.77;8.80;;;15.60;99.90;;;;;;4990309;28;20390;-61
2021/08/24 01:58:53;;;;;;;13.68;8.88;;;15.60;99.90;;;;;;4972485;28;20501;-59
2021/08/24 02:01:23;;;;;;;13.48;8.75;;;15.60;99.90;;;;;;4990302;28;20406;-62
2021/08/24 02:03:56;;;;;;;13.05;8.05;;;15.50;99.90;;;;;;4989143;28;20389;-62
2021/08/24 02:06:44;;;;;;;13.40;7.90;;;15.40;99.90;;;;;;4989998;28;20490;-62
2021/08/24 02:09:19;;;;;;;12.93;7.88;;;15.40;99.90;;;;;;4989685;28;20473;-61
2021/08/24 02:11:45;;;;;;;17.17;8.90;;;15.40;99.90;;;;;;4989483;28;20390;-59
2021/08/24 02:14:14;;;;;;;13.38;8.95;;;15.20;99.90;;;;;;4990283;28;20394;-62
2021/08/24 02:16:42;;;;;;;11.75;8.23;;;15.20;99.90;;;;;;4990083;28;20390;-62
2021/08/24 02:19:11;;;;;;;13.70;8.80;;;15.00;99.90;;;;;;4989225;28;20390;-61
2021/08/24 02:21:46;;;;;;;14.63;9.40;;;14.90;99.90;;;;;;4990309;28;20387;-62
2021/08/24 02:24:16;;;;;;;12.57;8.90;;;14.90;99.90;;;;;;4990260;28;20394;-62
2021/08/24 02:26:44;;;;;;;17.70;9.32;;;14.70;99.90;;;;;;4989739;28;20397;-63
2021/08/24 02:29:10;;;;;;;12.65;9.32;;;14.70;99.90;;;;;;4989396;28;20893;-62
2021/08/24 02:31:50;;;;;;;13.43;9.98;;;14.70;99.90;;;;;;4989585;28;20383;-62
2021/08/24 02:34:34;;;;;;;13.53;9.57;;;14.70;99.90;;;;;;4989918;28;20436;-62
2021/08/24 02:37:14;;;;;;;15.07;8.80;;;14.60;99.90;;;;;;4971613;28;20422;-62
2021/08/24 02:40:00;;;;;;;15.30;9.38;;;14.50;99.90;;;;;;4989754;28;20394;-63
2021/08/24 02:42:32;;;;;;;12.38;8.40;;;14.40;99.90;;;;;;4978406;28;20402;-63
2021/08/24 02:45:08;;;;;;;14.05;8.80;;;14.30;99.90;;;;;;4981716;28;20471;-63
2021/08/24 02:47:36;;;;;;;12.68;8.90;;;14.30;99.90;;;;;;4970186;28;20434;-63
2021/08/24 02:50:04;;;;;;;14.27;8.85;;;14.20;99.90;;;;;;4969549;28;20462;-63
2021/08/24 02:52:32;;;;;;;14.60;9.03;;;14.10;99.90;;;;;;4970120;28;20474;-63
2021/08/24 02:54:57;;;;;;;13.23;8.55;;;14.20;99.90;;;;;;4970013;28;20856;-63
2021/08/24 02:57:23;;;;;;;15.80;9.70;;;14.10;99.90;;;;;;4970404;28;20464;-63
2021/08/24 02:59:48;;;;;;;14.60;9.40;;;14.10;99.90;;;;;;4987141;28;20391;-62
2021/08/24 03:02:14;;;;;;;15.23;9.55;;;14.10;99.90;;;;;;4988412;28;20382;-65
2021/08/24 03:04:40;;;;;;;21.70;12.70;;;14.10;99.90;;;;;;4989936;28;20387;-63
2021/08/24 03:07:12;;;;;;;15.63;10.20;;;14.00;99.90;;;;;;4989132;28;20463;-63
2021/08/24 03:09:39;;;;;;;17.98;10.55;;;14.00;99.90;;;;;;4989831;28;20489;-63
2021/08/24 03:12:24;;;;;;;16.60;10.18;;;14.00;99.90;;;;;;4988775;28;20444;-63
2021/08/24 03:14:52;;;;;;;16.50;10.80;;;14.00;99.90;;;;;;4988827;28;20735;-62
2021/08/24 03:17:28;;;;;;;21.13;11.57;;;14.00;99.90;;;;;;4989497;28;20840;-62
2021/08/24 03:19:56;;;;;;;20.88;12.77;;;14.00;99.90;;;;;;4986407;28;20447;-62
2021/08/24 03:22:23;;;;;;;16.08;10.98;;;13.90;99.90;;;;;;4988088;28;20394;-64
2021/08/24 03:24:49;;;;;;;19.03;11.70;;;13.90;99.90;;;;;;4974064;28;20400;-62
2021/08/24 03:27:15;;;;;;;20.45;12.25;;;13.80;99.90;;;;;;4984436;28;20401;-63
2021/08/24 03:29:58;;;;;;;19.07;12.53;;;13.80;99.90;;;;;;4983583;28;20445;-63
2021/08/24 03:32:25;;;;;;;24.15;13.15;;;13.80;99.90;;;;;;4993382;28;20446;-62
2021/08/24 03:34:50;;;;;;;21.63;13.00;;;13.80;99.90;;;;;;4974990;28;20421;-62
2021/08/24 03:37:16;;;;;;;23.40;14.60;;;13.80;99.90;;;;;;4993175;28;20433;-62
2021/08/24 03:39:42;;;;;;;43.10;14.80;;;13.80;99.90;;;;;;4992979;28;20785;-64
2021/08/24 03:42:07;;;;;;;35.27;16.63;;;13.70;99.90;;;;;;4984683;28;20399;-62
2021/08/24 03:44:33;;;;;;;38.15;16.80;;;13.70;99.90;;;;;;4983703;28;20854;-63
2021/08/24 03:46:58;;;;;;;35.37;16.40;;;13.70;99.90;;;;;;4980654;28;20419;-62
2021/08/24 03:49:24;;;;;;;39.30;17.40;;;13.70;99.90;;;;;;4983785;28;20431;-67
2021/08/24 03:51:50;;;;;;;87.90;21.73;;;13.70;99.90;;;;;;4991793;28;20778;-62
2021/08/24 03:54:15;;;;;;;108.97;24.17;;;13.80;99.90;;;;;;4973420;28;20416;-61
2021/08/24 03:56:41;;;;;;;150.63;23.42;;;13.80;99.90;;;;;;4978866;28;20398;-63
2021/08/24 03:59:08;;;;;;;151.63;25.93;;;13.80;99.90;;;;;;4979902;28;20379;-63
2021/08/24 04:01:33;;;;;;;92.63;20.85;;;13.80;99.90;;;;;;4987909;28;20394;-62
2021/08/24 04:03:59;;;;;;;63.27;19.60;;;13.80;99.90;;;;;;4973525;28;20413;-63
2021/08/24 04:06:25;;;;;;;91.72;20.08;;;13.90;99.90;;;;;;4989213;28;20426;-63
2021/08/24 04:08:51;;;;;;;78.10;18.90;;;13.80;99.90;;;;;;4982189;28;20777;-63
2021/08/24 04:11:17;;;;;;;175.02;26.83;;;13.90;99.90;;;;;;4979314;28;20476;-63
2021/08/24 04:13:43;;;;;;;130.23;26.45;;;13.90;99.90;;;;;;4976695;28;20930;-63
2021/08/24 04:16:11;;;;;;;154.60;24.60;;;13.80;99.90;;;;;;4982901;28;20406;-63
2021/08/24 04:18:38;;;;;;;251.55;29.42;;;13.80;99.90;;;;;;4985796;28;20878;-62
2021/08/24 04:21:10;;;;;;;155.40;25.13;;;13.80;99.90;;;;;;4984213;28;20449;-63
2021/08/24 04:23:36;;;;;;;140.77;22.33;;;13.70;99.90;;;;;;4982357;28;20604;-62
2021/08/24 04:26:02;;;;;;;102.72;19.02;;;13.70;99.90;;;;;;4982589;28;20401;-62
2021/08/24 04:28:28;;;;;;;199.77;25.77;;;13.70;99.90;;;;;;4984971;28;20489;-63
2021/08/24 04:30:53;;;;;;;131.85;23.10;;;13.70;99.90;;;;;;4977573;28;20385;-63
2021/08/24 04:33:22;;;;;;;134.77;21.55;;;13.60;99.90;;;;;;4981005;28;20391;-63
2021/08/24 04:35:52;;;;;;;75.57;17.13;;;13.40;99.90;;;;;;4986248;28;20396;-60
2021/08/24 04:38:18;;;;;;;100.40;19.67;;;13.30;99.90;;;;;;4972958;28;20412;-63
2021/08/24 04:40:44;;;;;;;79.88;17.50;;;13.30;99.90;;;;;;4972995;28;20422;-63
2021/08/24 04:43:11;;;;;;;66.78;13.85;;;13.30;99.90;;;;;;4991064;28;20909;-62
2021/08/24 04:45:37;;;;;;;74.60;15.38;;;13.30;99.90;;;;;;4991761;28;20378;-63
2021/08/24 04:48:03;;;;;;;39.85;14.25;;;13.30;99.90;;;;;;4991088;28;20406;-63
2021/08/24 04:50:29;;;;;;;50.00;14.02;;;13.30;99.90;;;;;;4991303;28;20418;-63
2021/08/24 04:52:54;;;;;;;38.30;12.80;;;13.20;99.90;;;;;;4990396;28;20776;-63
2021/08/24 04:55:20;;;;;;;40.88;14.05;;;13.30;99.90;;;;;;4991819;28;20374;-62
2021/08/24 04:57:46;;;;;;;29.90;12.10;;;13.20;99.90;;;;;;4991183;28;20378;-60
2021/08/24 05:00:12;;;;;;;43.07;13.33;;;13.10;99.90;;;;;;4990768;28;20382;-63
2021/08/24 05:02:38;;;;;;;50.22;14.50;;;13.10;99.90;;;;;;4986834;28;20398;-62
2021/08/24 05:05:04;;;;;;;50.17;15.03;;;13.10;99.90;;;;;;4987174;28;20398;-62
2021/08/24 05:07:30;;;;;;;88.30;16.98;;;13.20;99.90;;;;;;4990746;28;20405;-63
2021/08/24 05:09:56;;;;;;;82.50;18.38;;;13.30;99.90;;;;;;4990120;28;20894;-63
2021/08/24 05:12:21;;;;;;;113.37;20.50;;;13.40;99.90;;;;;;4991008;28;20945;-63
2021/08/24 05:14:47;;;;;;;162.35;25.05;;;13.50;99.90;;;;;;4990712;28;20383;-60
2021/08/24 05:17:13;;;;;;;83.40;16.70;;;13.50;99.90;;;;;;4990642;28;20457;-63
2021/08/24 05:19:38;;;;;;;73.20;16.20;;;13.50;99.90;;;;;;4990969;28;20430;-63
2021/08/24 05:22:04;;;;;;;65.78;15.57;;;13.60;99.90;;;;;;4990013;28;20404;-62
2021/08/24 05:24:30;;;;;;;66.17;16.57;;;13.50;99.90;;;;;;4991030;28;20466;-62
2021/08/24 05:26:55;;;;;;;54.75;16.67;;;13.70;99.90;;;;;;4990163;28;20954;-62
2021/08/24 05:29:21;;;;;;;73.37;18.00;;;13.70;99.90;;;;;;4990939;28;20755;-62
2021/08/24 05:31:47;;;;;;;80.57;17.80;;;13.60;99.90;;;;;;4990496;28;20481;-60
2021/08/24 05:34:12;;;;;;;50.35;15.85;;;13.60;99.90;;;;;;4988984;28;20409;-62
2021/08/24 05:36:38;;;;;;;35.03;14.07;;;13.70;99.90;;;;;;4989566;28;20437;-62
2021/08/24 05:39:03;;;;;;;46.45;16.50;;;13.70;99.90;;;;;;4988867;28;20781;-63
2021/08/24 05:41:30;;;;;;;46.63;14.18;;;13.60;99.90;;;;;;4986535;28;20423;-64
2021/08/24 05:43:55;;;;;;;47.22;14.85;;;13.70;99.90;;;;;;4989047;28;20375;-64
2021/08/24 05:46:21;;;;;;;53.30;15.47;;;13.70;99.90;;;;;;4989458;28;20758;-62
2021/08/24 05:48:47;;;;;;;50.88;16.67;;;13.80;99.90;;;;;;4981931;28;21236;-60
2021/08/24 05:51:18;;;;;;;86.47;17.80;;;14.00;99.90;;;;;;4973227;28;20426;-62
2021/08/24 05:53:45;;;;;;;41.90;15.18;;;14.00;99.90;;;;;;4987230;28;20394;-61
2021/08/24 05:56:14;;;;;;;65.80;18.92;;;14.00;99.90;;;;;;4984469;28;21384;-62
2021/08/24 05:58:40;;;;;;;39.25;17.15;;;14.10;99.90;;;;;;4981998;28;20988;-62
2021/08/24 06:01:07;;;;;;;27.48;15.48;;;14.20;99.90;;;;;;4982273;28;20394;-62
2021/08/24 06:03:33;;;;;;;22.92;14.10;;;14.50;99.90;;;;;;4989403;28;20460;-62
2021/08/24 06:05:59;;;;;;;19.30;12.70;;;14.80;99.90;;;;;;4988576;28;20467;-63
2021/08/24 06:08:26;;;;;;;24.57;13.33;;;14.90;99.90;;;;;;4978947;28;20402;-62
2021/08/24 06:10:52;;;;;;;21.23;12.43;;;14.00;99.90;;;;;;4971951;28;20437;-60
2021/08/24 06:13:17;;;;;;;20.83;12.77;;;15.30;99.90;;;;;;4988884;28;20933;-62
2021/08/24 06:15:43;;;;;;;18.17;11.80;;;15.30;99.90;;;;;;4983077;28;20410;-62
2021/08/24 06:18:09;;;;;;;18.50;12.33;;;15.40;99.90;;;;;;4971470;28;20652;-62
2021/08/24 06:20:34;;;;;;;20.63;12.30;;;15.50;99.90;;;;;;4988013;28;20445;-60
2021/08/24 06:23:00;;;;;;;16.50;11.15;;;15.50;99.90;;;;;;4988017;28;20402;-61
2021/08/24 06:25:26;;;;;;;17.75;10.10;;;15.50;99.90;;;;;;4981430;28;20405;-61
2021/08/24 06:27:52;;;;;;;15.77;10.40;;;15.60;99.90;;;;;;4987398;28;20404;-61
2021/08/24 06:30:18;;;;;;;14.43;10.07;;;15.90;99.90;;;;;;4977504;28;20451;-63
2021/08/24 06:33:02;;;;;;;14.40;10.07;;;15.90;99.90;;;;;;4982221;28;20782;-61
2021/08/24 06:35:27;;;;;;;15.70;10.25;;;16.00;99.90;;;;;;4987303;28;20433;-61
2021/08/24 06:37:53;;;;;;;15.27;10.43;;;16.10;99.90;;;;;;4975475;28;20425;-62
2021/08/24 06:40:19;;;;;;;14.55;10.15;;;16.40;99.90;;;;;;4969953;28;20479;-62
2021/08/24 06:42:51;;;;;;;16.30;10.90;;;16.40;99.90;;;;;;4971819;28;20454;-62
2021/08/24 06:45:36;;;;;;;14.60;9.90;;;16.30;99.90;;;;;;4974362;28;20415;-62
2021/08/24 06:48:02;;;;;;;15.63;10.45;;;16.30;99.90;;;;;;4975697;28;20903;-62
2021/08/24 06:50:29;;;;;;;15.38;10.30;;;16.20;99.90;;;;;;4963795;28;21027;-62
2021/08/24 06:52:56;;;;;;;14.97;10.57;;;16.00;99.90;;;;;;4976892;28;20452;-61
2021/08/24 06:55:25;;;;;;;16.67;10.20;;;16.00;99.90;;;;;;4976445;28;20435;-62
2021/08/24 06:57:51;;;;;;;16.35;11.00;;;15.90;99.90;;;;;;4980317;28;20406;-59
2021/08/24 07:00:20;;;;;;;14.60;10.48;;;16.00;99.90;;;;;;4983658;28;20757;-62
2021/08/24 07:02:47;;;;;;;15.75;10.38;;;16.10;99.90;;;;;;4975618;28;20400;-62
2021/08/24 07:05:15;;;;;;;13.10;8.88;;;16.30;99.90;;;;;;4978747;28;20392;-62
2021/08/24 07:07:41;;;;;;;15.32;10.60;;;16.40;99.90;;;;;;4980158;28;20871;-62
2021/08/24 07:10:08;;;;;;;12.80;8.73;;;16.20;99.90;;;;;;4979013;28;20472;-62
2021/08/24 07:12:34;;;;;;;15.40;9.30;;;16.30;99.90;;;;;;4991893;28;20417;-65
2021/08/24 07:15:00;;;;;;;17.48;11.30;;;16.30;99.90;;;;;;4988560;28;20403;-65
2021/08/24 07:17:26;;;;;;;15.53;9.40;;;16.30;99.90;;;;;;4986555;28;20766;-64
2021/08/24 07:19:53;;;;;;;13.80;9.00;;;16.20;99.90;;;;;;4985359;28;20484;-61
2021/08/24 07:22:19;;;;;;;14.93;9.20;;;16.40;99.90;;;;;;4984590;28;20394;-63
2021/08/24 07:24:45;;;;;;;14.33;9.10;;;16.30;99.90;;;;;;4984866;28;20414;-65
2021/08/24 07:27:11;;;;;;;12.40;8.70;;;16.40;99.90;;;;;;4984559;28;20473;-64
2021/08/24 07:29:37;;;;;;;12.65;8.50;;;16.30;99.90;;;;;;4978403;28;20475;-65
2021/08/24 07:32:04;;;;;;;12.30;8.60;;;16.30;99.90;;;;;;4985423;28;20970;-63
2021/08/24 07:34:30;;;;;;;13.05;8.82;;;16.20;99.90;;;;;;4987137;28;20445;-66
2021/08/24 07:36:55;;;;;;;14.00;8.50;;;16.40;99.90;;;;;;4981124;28;20432;-65
2021/08/24 07:39:21;;;;;;;15.20;8.70;;;16.20;99.90;;;;;;4984067;28;20469;-65
2021/08/24 07:41:47;;;;;;;13.00;8.65;;;16.10;99.90;;;;;;4974770;28;20447;-65
2021/08/24 07:44:13;;;;;;;14.40;8.82;;;16.10;99.90;;;;;;4948035;28;20735;-65
2021/08/24 07:46:39;;;;;;;14.55;9.13;;;16.10;99.90;;;;;;4978782;28;20423;-61
2021/08/24 07:49:04;;;;;;;12.48;8.50;;;16.40;99.90;;;;;;4989893;28;20902;-61
2021/08/24 07:51:30;;;;;;;12.40;8.00;;;16.40;99.90;;;;;;4989491;28;20590;-60
2021/08/24 07:53:56;;;;;;;11.70;7.35;;;16.40;99.90;;;;;;4983165;28;22198;-60
2021/08/24 07:56:22;;;;;;;14.73;7.32;;;16.80;99.90;;;;;;4983809;28;20392;-60
2021/08/24 07:58:48;;;;;;;11.68;5.85;;;17.10;99.90;;;;;;4973362;28;20426;-60
2021/08/24 08:01:15;;;;;;;10.30;5.75;;;17.60;99.90;;;;;;4979416;28;20821;-60
2021/08/24 08:03:41;;;;;;;10.98;5.93;;;17.80;99.90;;;;;;4984641;28;20410;-60
2021/08/24 08:06:06;;;;;;;10.20;5.07;;;17.90;99.90;;;;;;4983455;28;20409;-60
2021/08/24 08:08:32;;;;;;;8.80;5.20;;;18.00;99.90;;;;;;4990117;28;20898;-61
2021/08/24 08:10:58;;;;;;;8.55;5.00;;;18.10;99.90;;;;;;4990445;28;20398;-60
2021/08/24 08:13:24;;;;;;;8.63;4.40;;;18.30;99.90;;;;;;4988709;28;20414;-61
2021/08/24 08:15:50;;;;;;;8.23;4.63;;;18.00;99.90;;;;;;4983608;28;20445;-60
2021/08/24 08:18:17;;;;;;;10.52;4.80;;;17.70;99.90;;;;;;4983048;28;20414;-60
2021/08/24 08:20:46;;;;;;;7.80;4.60;;;17.50;99.90;;;;;;4984055;28;21202;-61
2021/08/24 08:23:13;;;;;;;8.40;4.35;;;17.50;99.90;;;;;;4988973;28;20427;-60
2021/08/24 08:25:39;;;;;;;7.20;4.07;;;17.30;99.90;;;;;;4988782;28;20453;-60
2021/08/24 08:28:05;;;;;;;8.85;3.97;;;17.70;99.90;;;;;;4985054;28;20434;-60
2021/08/24 08:30:34;;;;;;;8.82;4.10;;;18.40;99.90;;;;;;4981247;28;21077;-60
2021/08/24 08:33:01;;;;;;;9.40;3.92;;;20.10;99.90;;;;;;4957884;28;20396;-60
2021/08/24 08:35:27;;;;;;;8.80;3.10;;;20.70;99.90;;;;;;4976747;28;20396;-61
2021/08/24 08:37:53;;;;;;;10.38;3.50;;;20.90;99.90;;;;;;4967064;28;20983;-60
2021/08/24 08:40:29;;;;;;;7.30;3.40;;;20.90;99.90;;;;;;4976019;28;20406;-61
2021/08/24 08:43:04;;;;;;;7.45;3.00;;;20.40;99.90;;;;;;4973581;28;20414;-60
2021/08/24 08:45:49;;;;;;;7.25;2.90;;;20.30;99.90;;;;;;4982831;28;20814;-61
2021/08/24 08:48:34;;;;;;;6.07;2.88;;;21.10;99.90;;;;;;4984281;28;20540;-61
2021/08/24 08:51:22;;;;;;;8.07;3.42;;;22.30;99.90;;;;;;4975293;28;20437;-61
2021/08/24 08:54:07;;;;;;;8.50;3.30;;;23.60;99.90;;;;;;4986884;28;20471;-63
2021/08/24 08:56:44;;;;;;;11.15;3.15;;;23.60;99.90;;;;;;4984777;28;20917;-62
2021/08/24 08:59:54;;;;;;;8.32;3.28;;;23.10;99.90;;;;;;4986394;28;20510;-61
2021/08/24 09:02:40;;;;;;;6.28;3.10;;;22.10;99.90;;;;;;4908595;29;20419;-62
2021/08/24 09:05:07;;;;;;;6.97;3.30;;;20.90;99.90;;;;;;4988218;28;20403;-61
2021/08/24 09:07:47;;;;;;;7.35;3.40;;;20.20;99.90;;;;;;4989226;28;20438;-61
2021/08/24 09:10:22;;;;;;;7.80;3.47;;;20.20;99.90;;;;;;4970229;28;20402;-62
2021/08/24 09:13:04;;;;;;;6.97;3.50;;;19.80;99.90;;;;;;4988893;28;20398;-65
2021/08/24 09:15:43;;;;;;;6.82;3.30;;;19.70;99.90;;;;;;4988004;28;20898;-61
2021/08/24 09:18:16;;;;;;;8.70;3.45;;;19.70;99.90;;;;;;4986749;28;20452;-61
2021/08/24 09:20:54;;;;;;;7.50;3.35;;;19.80;99.90;;;;;;4989069;28;20418;-62
2021/08/24 09:23:20;;;;;;;6.97;3.47;;;19.50;99.90;;;;;;4989486;28;20834;-63
2021/08/24 09:26:03;;;;;;;9.50;3.50;;;19.50;99.90;;;;;;4987556;28;20411;-62
2021/08/24 09:28:31;;;;;;;8.00;4.15;;;19.50;99.90;;;;;;4988907;28;20440;-63
2021/08/24 09:30:58;;;;;;;7.50;3.50;;;19.60;99.90;;;;;;4987268;28;20414;-63
2021/08/24 09:33:25;;;;;;;8.05;3.53;;;19.20;99.90;;;;;;4989108;28;20401;-62
2021/08/24 09:35:51;;;;;;;7.10;3.67;;;18.80;99.90;;;;;;4988029;28;20417;-61
2021/08/24 09:38:16;;;;;;;7.10;3.67;;;18.60;99.90;;;;;;4988294;28;21098;-62
2021/08/24 09:41:13;;;;;;;8.27;3.88;;;18.50;99.90;;;;;;4988768;28;20423;-62
2021/08/24 09:43:40;;;;;;;9.77;5.18;;;18.50;99.90;;;;;;4986019;28;20490;-61
2021/08/24 09:46:18;;;;;;;9.55;4.00;;;18.50;99.90;;;;;;4988325;28;20409;-62
2021/08/24 09:49:01;;;;;;;7.55;3.67;;;18.60;99.90;;;;;;4988156;28;20453;-63
2021/08/24 09:51:52;;;;;;;9.30;3.70;;;18.50;99.90;;;;;;4988898;28;20521;-61
2021/08/24 09:54:34;;;;;;;11.80;4.07;;;18.40;99.90;;;;;;4982611;28;20407;-61
2021/08/24 09:57:10;;;;;;;9.05;4.40;;;18.30;99.90;;;;;;4979728;28;20932;-62
2021/08/24 10:00:08;;;;;;;13.50;4.63;;;18.30;99.90;;;;;;4981986;28;20513;-62
2021/08/24 10:02:39;;;;;;;7.00;3.70;;;18.30;99.90;;;;;;4968987;28;20895;-63
2021/08/24 10:05:22;;;;;;;9.00;4.28;;;18.30;99.90;;;;;;4971006;28;20452;-62
2021/08/24 10:07:50;;;;;;;8.10;4.10;;;18.20;99.90;;;;;;4976170;28;20477;-62
2021/08/24 10:10:26;;;;;;;9.30;4.57;;;18.20;99.90;;;;;;4979534;28;20422;-62
2021/08/24 10:12:53;;;;;;;7.60;3.93;;;18.30;99.90;;;;;;4978809;28;20535;-61
2021/08/24 10:15:26;;;;;;;12.20;6.80;;;18.30;99.90;;;;;;4988322;28;20394;-62
2021/08/24 10:18:09;;;;;;;7.80;4.10;;;18.60;99.90;;;;;;4987667;28;20802;-61
2021/08/24 10:20:40;;;;;;;7.38;4.10;;;18.60;99.90;;;;;;4987398;28;20418;-62
2021/08/24 10:23:13;;;;;;;7.78;4.63;;;18.50;99.90;;;;;;4986418;28;20402;-62
2021/08/24 10:26:00;;;;;;;8.07;4.70;;;18.50;99.90;;;;;;4968893;28;20902;-62
2021/08/24 10:28:30;;;;;;;9.13;4.82;;;18.40;99.90;;;;;;4969279;28;20485;-62
2021/08/24 10:31:01;;;;;;;9.07;4.40;;;18.40;99.90;;;;;;4986113;28;20402;-61
2021/08/24 10:33:33;;;;;;;8.15;4.18;;;18.60;99.90;;;;;;4987475;28;20410;-60
2021/08/24 10:36:13;;;;;;;8.90;4.97;;;18.50;99.90;;;;;;4974580;28;20397;-61
2021/08/24 10:38:50;;;;;;;7.72;4.70;;;18.60;99.90;;;;;;4977204;28;20417;-62
2021/08/24 10:41:39;;;;;;;7.40;4.47;;;18.70;99.90;;;;;;4982846;28;20421;-62
2021/08/24 10:44:18;;;;;;;8.63;4.63;;;19.10;99.90;;;;;;4978669;28;20406;-63
2021/08/24 10:46:50;;;;;;;9.43;4.47;;;19.50;99.90;;;;;;4977877;28;20872;-63
2021/08/24 10:49:16;;;;;;;8.15;4.53;;;19.60;99.90;;;;;;4981413;28;20959;-63
2021/08/24 10:52:09;;;;;;;9.10;4.47;;;19.60;99.90;;;;;;4985668;28;20902;-62
2021/08/24 10:54:46;;;;;;;8.95;4.25;;;19.60;99.90;;;;;;4979373;28;20402;-63
2021/08/24 10:57:27;;;;;;;7.85;4.60;;;19.40;99.90;;;;;;4980388;28;20397;-62
2021/08/24 11:00:13;;;;;;;7.50;4.23;;;19.60;99.90;;;;;;4985811;28;20406;-63
2021/08/24 11:02:47;;;;;;;8.98;4.88;;;19.70;99.90;;;;;;4983224;28;20456;-63
2021/08/24 11:05:37;;;;;;;8.07;4.57;;;19.80;99.90;;;;;;4982968;28;20406;-63
2021/08/24 11:08:17;;;;;;;8.10;5.00;;;19.60;99.90;;;;;;4965125;28;20451;-64
2021/08/24 11:10:58;;;;;;;8.10;4.40;;;19.50;99.90;;;;;;4980666;28;20979;-65
2021/08/24 11:13:30;;;;;;;8.45;4.90;;;19.40;99.90;;;;;;4984675;28;20540;-62
2021/08/24 11:16:07;;;;;;;7.28;4.32;;;19.60;99.90;;;;;;4984891;28;20434;-62
2021/08/24 11:18:51;;;;;;;8.27;4.53;;;19.60;99.90;;;;;;4966280;28;20728;-62
2021/08/24 11:21:40;;;;;;;10.35;5.45;;;19.70;99.90;;;;;;4960496;28;20947;-64
2021/08/24 11:24:30;;;;;;;8.70;4.50;;;19.70;99.90;;;;;;4978936;28;20383;-63
2021/08/24 11:27:36;;;;;;;11.63;4.97;;;19.80;99.90;;;;;;4974270;28;20469;-61
2021/08/24 11:30:19;;;;;;;12.45;6.53;;;19.60;99.90;;;;;;4976960;28;20492;-63
2021/08/24 11:32:49;;;;;;;10.60;5.82;;;19.50;99.90;;;;;;4987629;28;20648;-63
2021/08/24 11:35:23;;;;;;;15.43;8.85;;;19.50;99.90;;;;;;4981986;28;20391;-63
2021/08/24 11:37:56;;;;;;;11.48;5.65;;;19.40;99.90;;;;;;4988197;28;20414;-64
2021/08/24 11:40:34;;;;;;;11.35;5.82;;;19.50;99.90;;;;;;4983166;28;20621;-64
2021/08/24 11:43:02;;;;;;;10.90;5.32;;;19.60;99.90;;;;;;4983230;28;20434;-63
2021/08/24 11:45:45;;;;;;;9.50;5.70;;;19.70;99.90;;;;;;4984091;28;20413;-64
2021/08/24 11:48:18;;;;;;;11.82;6.07;;;19.50;99.90;;;;;;4983018;28;20453;-64
2021/08/24 11:50:49;;;;;;;10.85;4.72;;;19.40;99.90;;;;;;4978681;28;20430;-64
2021/08/24 11:53:27;;;;;;;12.57;6.40;;;19.60;99.90;;;;;;4990760;28;20624;-64
2021/08/24 11:55:58;;;;;;;10.23;5.45;;;19.70;99.90;;;;;;4984530;28;20890;-64
2021/08/24 11:58:45;;;;;;;9.32;5.47;;;19.60;99.90;;;;;;4959369;28;20416;-64
2021/08/24 12:01:16;;;;;;;8.90;5.45;;;19.60;99.90;;;;;;4971821;28;20392;-65
2021/08/24 12:03:51;;;;;;;10.23;5.47;;;19.40;99.90;;;;;;4985880;28;20406;-67
2021/08/24 12:06:42;;;;;;;11.10;5.30;;;19.30;99.90;;;;;;4983108;28;20434;-63
2021/08/24 12:09:17;;;;;;;9.35;5.07;;;19.00;99.90;;;;;;4979106;28;20452;-63
2021/08/24 12:11:48;;;;;;;8.95;5.00;;;19.00;99.90;;;;;;4978668;28;20430;-62
2021/08/24 12:14:34;;;;;;;10.00;5.00;;;19.00;99.90;;;;;;4971611;28;20392;-63
2021/08/24 12:17:15;;;;;;;11.25;5.43;;;19.00;99.90;;;;;;4984553;28;20429;-66
2021/08/24 12:20:00;;;;;;;11.23;5.90;;;19.20;99.90;;;;;;4984901;28;20873;-65
2021/08/24 12:22:35;;;;;;;10.88;5.07;;;19.30;99.90;;;;;;4984989;28;20423;-64
2021/08/24 12:25:10;;;;;;;9.18;4.78;;;19.40;99.90;;;;;;4971626;28;20406;-62
2021/08/24 12:27:47;;;;;;;10.70;5.57;;;19.60;99.90;;;;;;4971158;28;20396;-64
2021/08/24 12:30:20;;;;;;;8.90;4.47;;;20.00;99.90;;;;;;4984374;28;20426;-64
2021/08/24 12:32:49;;;;;;;8.10;5.25;;;20.20;99.90;;;;;;4986659;28;20410;-64
2021/08/24 12:35:28;;;;;;;11.20;5.20;;;20.20;99.90;;;;;;4978173;28;20923;-64
2021/08/24 12:37:59;;;;;;;9.40;4.80;;;20.30;99.90;;;;;;4977946;28;20476;-65
2021/08/24 12:40:31;;;;;;;9.43;4.95;;;19.30;99.90;;;;;;4980760;28;20492;-64
2021/08/24 12:43:17;;;;;;;9.38;4.70;;;20.70;99.90;;;;;;4988468;28;20422;-61
2021/08/24 12:45:43;;;;;;;9.30;4.70;;;20.60;99.90;;;;;;4983382;28;20475;-64
2021/08/24 12:48:23;;;;;;;8.20;4.60;;;20.30;99.90;;;;;;4987980;28;20497;-64
2021/08/24 12:51:08;;;;;;;8.65;4.90;;;20.20;99.90;;;;;;4977679;28;20416;-64
2021/08/24 12:53:44;;;;;;;8.43;4.80;;;20.30;99.90;;;;;;4985939;28;20436;-63
2021/08/24 12:56:32;;;;;;;8.95;4.53;;;20.20;99.90;;;;;;4987543;28;20415;-64
2021/08/24 12:59:02;;;;;;;10.52;5.47;;;20.40;99.90;;;;;;4984695;28;20406;-61